Hlavní strana
METAR-TAF:

METAR-TAF

Letiště :

Klagenfurt, Rakousko

zeměpisná šířka: 46-39N, zeměpisná délka: 014-20E, výška: 448 m

Aktuální stav počasí

Zpráva byla vytvořena před 23 minutami, v 01:20 UTC
vítr z různých směrů 2 kt
Teplota 10°C
Vlhkost vzduchu 82%
Tlak 1012 hPa
Viditelnost 10 km a více

METAR: LOWK 190120Z AUTO VRB02KT 9999 NCD 10/07 Q1012

Čas: 03:43 (01:43 UTC)

Předpověď počasí

Zpráva byla vytvořena před 2 hodinami a 28 minutami, v 23:15 UTC
Předpověď platná od 19 v 00 UTC do 19 v 24 UTC
Západoseverozápadní vítr 4 kt
Viditelnost 10 km a více
Skoro jasno ve výšce 6000 ft
Pravděpodobnost 30% :
Dočasný
od 19 v 11 UTC do 19 v 16 UTC
Jihojihozápadní vítr 10 kt
Skoro jasno ve výšce 5000 ft, Cumulonimbus.

TAF: LOWK 182315Z 1900/1924 30004KT 9999 FEW060 TX24/1915Z TN10/1904Z PROB30 TEMPO 1911/1916 21010KT FEW050CB

Stav a předpovědi počasí z více než 4 000 letišť (zprávy METAR a TAF).

Červené a žluté tečky na mapě představují dostupné meteorologické stanice.

Když kurzor umístíte na tečku, zobrazí se název stanice.

Pak kliknutím zobrazíte stav a předpověď počasí.

Chcete-li změnit mapu, kliknutím na zelené tlačítko se znaménkem +mapu přiblížíte, kliknutím na zelené tlačítko se znaménkem – mapu oddálíte a kliknutím na zelené šipky přejdete na sousední mapy.


METAR-TAF: